Time;durP1;ratioP1;P1;durP2;ratioP2;P2;SDS_P1;SDS_P2;PMS_P1;PMS_P2;Temp;Humidity;BMP_temperature;BMP_pressure;BME280_temperature;BME280_humidity;BME280_pressure;Samples;Min_cycle;Max_cycle;Signal;HPM_P1;HPM_P2
2021/03/09 00:01:42;;;;;;;23.83;18.47;;;8.20;52.30;;;;;;5072268;28;20684;-51
2021/03/09 00:04:10;;;;;;;25.60;17.70;;;8.30;52.10;;;;;;5071504;28;20711;-52
2021/03/09 00:06:36;;;;;;;19.07;16.07;;;8.20;52.20;;;;;;5072041;28;20626;-52
2021/03/09 00:09:03;;;;;;;20.00;17.57;;;8.20;52.10;;;;;;5061465;28;20632;-52
2021/03/09 00:11:30;;;;;;;22.63;16.97;;;8.20;52.20;;;;;;5052397;28;20663;-52
2021/03/09 00:13:57;;;;;;;22.73;17.37;;;8.20;52.20;;;;;;5051717;28;21340;-51
2021/03/09 00:16:23;;;;;;;20.27;16.40;;;8.10;52.40;;;;;;5052197;28;20685;-51
2021/03/09 00:18:50;;;;;;;23.20;17.40;;;8.20;52.60;;;;;;5051593;28;20681;-51
2021/03/09 00:21:18;;;;;;;23.40;16.07;;;8.10;52.60;;;;;;5051796;28;20628;-51
2021/03/09 00:23:44;;;;;;;23.93;18.40;;;8.10;52.70;;;;;;5051688;28;20678;-51
2021/03/09 00:26:11;;;;;;;26.30;19.03;;;8.10;52.60;;;;;;5051325;28;20716;-52
2021/03/09 00:28:38;;;;;;;24.53;18.30;;;8.10;52.80;;;;;;5051672;28;21037;-51
2021/03/09 00:31:05;;;;;;;18.63;15.83;;;8.10;53.00;;;;;;5051732;28;20621;-51
2021/03/09 00:33:31;;;;;;;20.60;17.00;;;8.10;52.80;;;;;;5051960;28;21308;-52
2021/03/09 00:35:58;;;;;;;21.20;16.60;;;8.10;52.80;;;;;;5052362;28;20691;-52
2021/03/09 00:38:26;;;;;;;22.30;17.43;;;8.10;52.70;;;;;;5056187;28;20643;-52
2021/03/09 00:40:52;;;;;;;21.87;17.77;;;8.10;52.80;;;;;;5064056;28;21196;-52
2021/03/09 00:43:19;;;;;;;19.60;16.43;;;8.10;52.90;;;;;;5051291;28;20716;-51
2021/03/09 00:45:46;;;;;;;20.63;15.43;;;8.10;52.80;;;;;;5049870;28;20638;-52
2021/03/09 00:48:13;;;;;;;19.33;14.90;;;8.10;52.80;;;;;;5051390;28;20634;-52
2021/03/09 00:50:39;;;;;;;20.13;16.90;;;8.00;52.80;;;;;;5051596;28;20650;-52
2021/03/09 00:53:06;;;;;;;21.60;16.40;;;8.00;52.80;;;;;;5050932;28;20703;-51
2021/03/09 00:55:34;;;;;;;21.90;14.63;;;8.10;52.80;;;;;;5051597;28;21038;-51
2021/03/09 00:58:01;;;;;;;25.27;16.13;;;8.00;52.70;;;;;;5051004;28;20626;-51
2021/03/09 01:00:28;;;;;;;24.50;15.60;;;8.10;52.70;;;;;;5071324;28;20625;-51
2021/03/09 01:02:55;;;;;;;17.57;15.07;;;8.10;52.80;;;;;;5070900;28;20658;-51
2021/03/09 01:05:22;;;;;;;15.73;12.13;;;8.10;52.50;;;;;;5071392;28;20622;-51
2021/03/09 01:07:49;;;;;;;16.20;12.47;;;8.00;51.80;;;;;;5052028;28;20680;-52
2021/03/09 01:10:16;;;;;;;20.30;15.87;;;8.00;51.70;;;;;;5060652;28;20695;-51
2021/03/09 01:12:44;;;;;;;18.90;15.63;;;7.90;51.70;;;;;;5062028;28;20684;-53
2021/03/09 01:15:11;;;;;;;18.80;14.43;;;7.80;51.80;;;;;;5072781;28;20629;-51
2021/03/09 01:17:38;;;;;;;18.40;13.83;;;7.70;51.90;;;;;;5072916;28;20632;-52
2021/03/09 01:20:06;;;;;;;20.60;13.80;;;7.60;51.90;;;;;;5064938;28;21212;-51
2021/03/09 01:22:33;;;;;;;18.90;14.80;;;7.50;52.00;;;;;;5064929;28;20654;-51
2021/03/09 01:25:00;;;;;;;15.30;13.70;;;7.40;52.20;;;;;;5075120;28;20661;-51
2021/03/09 01:27:26;;;;;;;19.73;15.27;;;7.20;52.30;;;;;;5073943;28;20675;-52
2021/03/09 01:29:54;;;;;;;19.33;15.43;;;7.10;52.70;;;;;;5074951;28;20679;-51
2021/03/09 01:32:21;;;;;;;18.40;14.73;;;7.10;53.10;;;;;;5074609;28;20625;-51
2021/03/09 01:34:48;;;;;;;20.20;15.83;;;7.10;53.10;;;;;;5074606;28;20641;-50
2021/03/09 01:37:15;;;;;;;20.30;14.10;;;7.10;53.30;;;;;;5060522;28;20695;-50
2021/03/09 01:39:41;;;;;;;19.47;12.70;;;7.10;53.20;;;;;;5054566;28;21031;-50
2021/03/09 01:42:08;;;;;;;21.10;13.40;;;7.10;53.30;;;;;;5054100;28;20634;-51
2021/03/09 01:44:35;;;;;;;19.20;14.70;;;7.00;53.30;;;;;;5072658;28;21405;-50
2021/03/09 01:47:03;;;;;;;15.63;12.77;;;7.00;53.40;;;;;;5073841;28;20634;-50
2021/03/09 01:49:31;;;;;;;17.77;14.20;;;7.10;53.40;;;;;;5074159;28;20632;-50
2021/03/09 01:51:58;;;;;;;21.90;15.50;;;7.00;53.40;;;;;;5074814;28;21238;-51
2021/03/09 01:54:24;;;;;;;17.87;13.70;;;7.00;53.50;;;;;;5068952;28;20980;-51
2021/03/09 01:56:51;;;;;;;19.40;14.67;;;6.90;53.50;;;;;;5055518;28;21231;-51
2021/03/09 01:59:18;;;;;;;23.47;15.30;;;7.00;53.70;;;;;;5060026;28;20621;-51
2021/03/09 02:01:45;;;;;;;15.73;12.80;;;7.00;53.80;;;;;;5054732;28;21025;-51
2021/03/09 02:04:12;;;;;;;16.00;11.87;;;7.10;53.90;;;;;;5063540;28;21189;-51
2021/03/09 02:06:39;;;;;;;17.47;13.13;;;7.00;53.60;;;;;;5074491;28;21029;-50
2021/03/09 02:09:06;;;;;;;17.00;13.40;;;6.90;53.70;;;;;;5074030;28;20625;-51
2021/03/09 02:11:39;;;;;;;16.23;12.80;;;6.80;54.00;;;;;;5071251;28;20633;-51
2021/03/09 02:14:11;;;;;;;15.53;12.47;;;6.80;54.50;;;;;;5073658;28;21284;-51
2021/03/09 02:16:42;;;;;;;19.97;14.10;;;6.80;54.60;;;;;;5073560;28;20629;-51
2021/03/09 02:19:37;;;;;;;21.13;15.87;;;6.90;55.00;;;;;;5053674;28;20634;-51
2021/03/09 02:22:23;;;;;;;20.00;14.40;;;7.00;55.20;;;;;;5027997;28;20652;-51
2021/03/09 02:25:03;;;;;;;17.77;13.90;;;7.00;55.50;;;;;;5053116;28;20650;-51
2021/03/09 02:27:35;;;;;;;18.80;12.80;;;7.00;55.80;;;;;;5061081;28;20709;-51
2021/03/09 02:30:22;;;;;;;21.90;14.67;;;7.10;55.90;;;;;;5073611;28;20647;-50
2021/03/09 02:32:51;;;;;;;18.93;14.07;;;7.10;56.20;;;;;;5064581;28;20660;-50
2021/03/09 02:35:19;;;;;;;17.20;14.50;;;7.20;56.20;;;;;;5053316;28;20641;-50
2021/03/09 02:37:46;;;;;;;25.07;16.17;;;7.20;56.20;;;;;;5053851;28;20703;-51
2021/03/09 02:40:14;;;;;;;21.97;14.07;;;7.20;55.60;;;;;;5054315;28;20695;-51
2021/03/09 02:42:48;;;;;;;21.40;14.63;;;7.20;55.60;;;;;;5053307;28;20680;-51
2021/03/09 02:45:15;;;;;;;17.67;13.90;;;7.20;55.40;;;;;;5053187;28;20622;-52
2021/03/09 02:47:46;;;;;;;19.80;15.60;;;7.30;55.00;;;;;;5052777;28;20622;-51
2021/03/09 02:50:13;;;;;;;17.83;15.30;;;7.40;54.60;;;;;;5053639;28;20633;-51
2021/03/09 02:52:40;;;;;;;23.00;12.80;;;7.40;54.20;;;;;;5053117;28;20626;-51
2021/03/09 02:55:10;;;;;;;18.20;15.57;;;7.30;54.10;;;;;;5053654;28;21046;-51
2021/03/09 02:57:37;;;;;;;21.50;14.97;;;7.20;54.10;;;;;;5072689;28;20617;-51
2021/03/09 03:00:06;;;;;;;19.43;14.93;;;7.10;54.30;;;;;;5072990;28;20675;-51
2021/03/09 03:02:33;;;;;;;16.87;13.00;;;7.00;54.50;;;;;;5073154;28;20633;-52
2021/03/09 03:05:00;;;;;;;14.90;12.40;;;6.80;54.70;;;;;;5072811;28;20703;-51
2021/03/09 03:07:27;;;;;;;18.43;11.47;;;6.70;55.00;;;;;;5055959;28;21273;-51
2021/03/09 03:09:54;;;;;;;18.20;14.93;;;6.70;55.80;;;;;;5069216;28;20626;-52
2021/03/09 03:12:20;;;;;;;19.17;13.70;;;6.70;56.00;;;;;;5053138;28;20634;-51
2021/03/09 03:14:47;;;;;;;15.77;12.93;;;6.70;55.70;;;;;;5052852;28;20646;-52
2021/03/09 03:17:14;;;;;;;16.07;12.37;;;6.80;55.90;;;;;;5052831;28;21062;-51
2021/03/09 03:19:41;;;;;;;21.90;13.83;;;6.90;56.00;;;;;;5052494;28;20646;-52
2021/03/09 03:22:09;;;;;;;14.00;11.97;;;6.90;55.80;;;;;;5055248;28;20654;-52
2021/03/09 03:24:35;;;;;;;15.50;11.13;;;7.00;55.70;;;;;;5063731;28;20698;-52
2021/03/09 03:27:02;;;;;;;14.40;11.60;;;7.10;55.50;;;;;;5072867;28;20613;-50
2021/03/09 03:29:29;;;;;;;15.37;12.50;;;7.10;55.20;;;;;;5072337;28;20625;-50
2021/03/09 03:31:56;;;;;;;15.10;12.17;;;7.20;55.20;;;;;;5072822;28;21242;-50
2021/03/09 03:34:23;;;;;;;15.20;12.50;;;7.10;55.00;;;;;;5072381;28;20653;-51
2021/03/09 03:36:49;;;;;;;12.97;11.10;;;7.10;55.10;;;;;;5059837;28;20638;-52
2021/03/09 03:39:17;;;;;;;14.67;11.13;;;7.20;55.00;;;;;;5051708;28;20623;-52
2021/03/09 03:41:44;;;;;;;14.23;12.73;;;7.20;55.00;;;;;;5052244;28;20634;-51
2021/03/09 03:44:11;;;;;;;16.43;12.80;;;7.20;54.90;;;;;;5052311;28;21081;-51
2021/03/09 03:46:38;;;;;;;17.37;11.83;;;7.10;55.30;;;;;;5052215;28;20630;-50
2021/03/09 03:49:04;;;;;;;13.90;11.03;;;7.10;54.90;;;;;;5052173;28;20630;-50
2021/03/09 03:51:33;;;;;;;15.47;11.30;;;7.10;55.00;;;;;;5052208;28;20633;-51
2021/03/09 03:54:11;;;;;;;14.63;11.33;;;7.20;55.20;;;;;;5056659;28;21021;-51
2021/03/09 03:56:42;;;;;;;16.63;12.50;;;7.20;55.20;;;;;;5072238;28;20641;-51
2021/03/09 03:59:10;;;;;;;14.57;11.93;;;7.20;55.00;;;;;;5072092;28;20629;-51
2021/03/09 04:01:37;;;;;;;16.53;11.93;;;7.20;54.80;;;;;;5071261;28;21030;-53
2021/03/09 04:04:06;;;;;;;16.97;11.23;;;7.30;54.80;;;;;;5067191;28;21288;-52
2021/03/09 04:06:32;;;;;;;13.60;11.07;;;7.30;54.80;;;;;;5052214;28;20648;-51
2021/03/09 04:09:01;;;;;;;15.57;10.43;;;7.30;54.80;;;;;;5051709;28;20683;-53
2021/03/09 04:11:27;;;;;;;15.03;11.27;;;7.30;54.80;;;;;;5051745;28;20634;-50
2021/03/09 04:13:55;;;;;;;12.77;11.40;;;7.30;54.80;;;;;;5051923;28;21068;-49
2021/03/09 04:16:22;;;;;;;14.87;11.50;;;7.30;54.80;;;;;;5051402;28;21061;-50
2021/03/09 04:18:48;;;;;;;14.07;10.27;;;7.20;54.80;;;;;;5051201;28;20626;-50
2021/03/09 04:21:15;;;;;;;13.00;11.30;;;7.20;54.90;;;;;;5051669;28;20615;-50
2021/03/09 04:23:42;;;;;;;12.17;10.17;;;7.20;55.10;;;;;;5051147;28;20674;-50
2021/03/09 04:26:09;;;;;;;15.63;11.60;;;7.20;55.30;;;;;;5051442;28;20634;-49
2021/03/09 04:28:35;;;;;;;13.53;11.30;;;7.10;55.50;;;;;;5051110;28;21137;-51
2021/03/09 04:31:03;;;;;;;12.03;10.77;;;7.20;55.70;;;;;;5052296;28;20684;-50
2021/03/09 04:33:30;;;;;;;15.13;11.97;;;7.20;55.70;;;;;;5062852;28;20653;-51
2021/03/09 04:35:56;;;;;;;17.30;13.63;;;7.20;55.70;;;;;;5069253;28;20645;-50
2021/03/09 04:38:23;;;;;;;22.23;13.53;;;7.20;56.00;;;;;;5071496;28;20632;-51
2021/03/09 04:40:50;;;;;;;21.40;14.90;;;7.10;56.20;;;;;;5058376;28;20688;-51
2021/03/09 04:43:17;;;;;;;20.20;13.77;;;7.20;56.20;;;;;;5051619;28;20674;-50
2021/03/09 04:45:44;;;;;;;16.10;13.60;;;7.20;55.90;;;;;;5051279;28;20652;-50
2021/03/09 04:48:12;;;;;;;20.50;14.73;;;7.30;55.70;;;;;;5050525;28;20635;-50
2021/03/09 04:50:38;;;;;;;15.97;12.10;;;7.30;55.80;;;;;;5052369;28;20630;-50
2021/03/09 04:53:05;;;;;;;19.23;13.17;;;7.30;55.70;;;;;;5051098;28;20680;-50
2021/03/09 04:55:32;;;;;;;15.70;12.13;;;7.30;56.10;;;;;;5051234;28;20619;-50
2021/03/09 04:58:01;;;;;;;18.23;11.60;;;7.30;56.30;;;;;;5049421;28;20881;-51
2021/03/09 05:00:28;;;;;;;15.37;13.17;;;7.30;56.40;;;;;;5053394;28;21222;-49
2021/03/09 05:02:55;;;;;;;14.37;11.27;;;7.30;56.30;;;;;;5062987;28;20630;-50
2021/03/09 05:05:23;;;;;;;15.50;12.77;;;7.40;55.90;;;;;;5070214;28;20633;-50
2021/03/09 05:07:52;;;;;;;13.40;10.70;;;7.40;55.90;;;;;;5070936;28;20687;-50
2021/03/09 05:10:19;;;;;;;10.47;9.17;;;7.40;55.90;;;;;;5071289;28;20876;-50
2021/03/09 05:12:47;;;;;;;12.80;9.77;;;7.40;56.00;;;;;;5053446;28;21268;-50
2021/03/09 05:15:14;;;;;;;13.87;10.10;;;7.40;56.20;;;;;;5049842;28;20638;-50
2021/03/09 05:17:40;;;;;;;17.37;10.80;;;7.40;56.20;;;;;;5050377;28;20619;-50
2021/03/09 05:20:09;;;;;;;14.70;11.40;;;7.40;56.30;;;;;;5051313;28;20640;-50
2021/03/09 05:22:37;;;;;;;11.77;10.37;;;7.40;56.40;;;;;;5057996;28;20629;-50
2021/03/09 05:25:04;;;;;;;20.03;11.80;;;7.40;56.30;;;;;;5071020;28;20746;-50
2021/03/09 05:27:31;;;;;;;15.37;11.87;;;7.40;56.40;;;;;;5070713;28;20658;-49
2021/03/09 05:29:58;;;;;;;13.43;10.87;;;7.40;56.30;;;;;;5058461;28;21183;-51
2021/03/09 05:32:24;;;;;;;12.50;10.60;;;7.40;56.20;;;;;;5050837;28;21184;-51
2021/03/09 05:34:51;;;;;;;16.50;11.03;;;7.40;56.20;;;;;;5051008;28;21422;-51
2021/03/09 05:37:18;;;;;;;16.30;11.30;;;7.40;55.90;;;;;;5062223;28;20690;-51
2021/03/09 05:39:45;;;;;;;13.20;10.60;;;7.50;56.10;;;;;;5070481;28;20630;-51
2021/03/09 05:42:12;;;;;;;13.73;9.97;;;7.50;55.50;;;;;;5069904;28;20616;-52
2021/03/09 05:44:39;;;;;;;12.97;9.90;;;7.40;55.40;;;;;;5069877;28;20662;-51
2021/03/09 05:47:06;;;;;;;14.03;10.70;;;7.30;55.70;;;;;;5056958;28;21233;-50
2021/03/09 05:49:33;;;;;;;11.80;9.83;;;7.30;55.90;;;;;;5050388;28;20694;-50
2021/03/09 05:52:00;;;;;;;13.13;10.23;;;7.30;55.70;;;;;;5061221;28;20649;-51
2021/03/09 05:54:27;;;;;;;14.90;10.60;;;7.30;55.80;;;;;;5070720;28;20642;-50
2021/03/09 05:56:55;;;;;;;18.13;10.03;;;7.30;56.00;;;;;;5070180;28;20625;-50
2021/03/09 05:59:22;;;;;;;18.10;10.70;;;7.30;56.00;;;;;;5070087;28;20629;-51
2021/03/09 06:01:49;;;;;;;14.90;11.00;;;7.20;56.10;;;;;;5071109;28;20621;-50
2021/03/09 06:04:16;;;;;;;11.50;8.90;;;7.20;56.20;;;;;;5054876;28;20659;-51
2021/03/09 06:06:43;;;;;;;13.13;10.40;;;7.20;56.50;;;;;;5064736;28;20621;-50
2021/03/09 06:09:40;;;;;;;18.83;11.77;;;7.30;56.40;;;;;;5071321;28;20956;-51
2021/03/09 06:12:12;;;;;;;12.70;9.90;;;7.30;56.30;;;;;;5065626;28;20638;-51
2021/03/09 06:14:40;;;;;;;14.17;10.20;;;7.30;56.10;;;;;;5070645;28;20637;-50
2021/03/09 06:17:07;;;;;;;15.47;10.80;;;7.40;56.00;;;;;;5060730;28;20653;-51
2021/03/09 06:19:41;;;;;;;16.60;10.27;;;7.40;56.00;;;;;;5068790;28;20739;-51
2021/03/09 06:22:08;;;;;;;14.70;9.60;;;7.40;55.90;;;;;;5057363;28;20629;-51
2021/03/09 06:24:35;;;;;;;11.77;10.17;;;7.40;55.70;;;;;;5061153;28;20746;-52
2021/03/09 06:27:02;;;;;;;12.33;9.90;;;7.30;55.90;;;;;;5057648;28;21233;-51
2021/03/09 06:29:30;;;;;;;12.10;9.50;;;7.30;56.30;;;;;;5057033;28;20679;-52
2021/03/09 06:32:00;;;;;;;14.27;9.73;;;7.30;56.70;;;;;;5059693;28;21026;-51
2021/03/09 06:34:27;;;;;;;15.53;9.60;;;7.40;56.60;;;;;;5066371;28;20650;-52
2021/03/09 06:37:05;;;;;;;12.63;10.60;;;7.40;56.30;;;;;;5069695;28;20675;-52
2021/03/09 06:39:51;;;;;;;13.43;10.20;;;7.50;56.10;;;;;;5069353;28;20667;-55
2021/03/09 06:42:19;;;;;;;20.33;10.20;;;7.50;55.80;;;;;;5057234;28;20639;-53
2021/03/09 06:44:55;;;;;;;13.77;9.70;;;7.60;55.80;;;;;;5052560;28;20667;-55
2021/03/09 06:47:38;;;;;;;14.03;12.50;;;7.60;55.90;;;;;;5053848;28;20681;-51
2021/03/09 06:50:07;;;;;;;16.00;9.87;;;7.60;56.20;;;;;;5056683;28;20628;-50
2021/03/09 06:52:34;;;;;;;16.07;11.00;;;7.60;55.90;;;;;;5064352;28;20628;-52
2021/03/09 06:55:00;;;;;;;12.57;9.60;;;7.70;55.50;;;;;;5052547;28;20694;-52
2021/03/09 06:57:27;;;;;;;12.60;9.70;;;7.60;55.50;;;;;;5052333;28;20703;-52
2021/03/09 06:59:55;;;;;;;13.40;9.73;;;7.70;56.00;;;;;;5052388;28;20641;-52
2021/03/09 07:02:22;;;;;;;12.03;9.20;;;7.70;56.30;;;;;;5052641;28;21251;-52
2021/03/09 07:04:49;;;;;;;9.73;8.47;;;7.70;56.40;;;;;;5063970;28;20673;-52
2021/03/09 07:07:21;;;;;;;12.43;9.70;;;7.70;56.20;;;;;;5072086;28;20627;-51
2021/03/09 07:09:56;;;;;;;13.00;10.73;;;7.80;56.40;;;;;;5072476;28;20688;-51
2021/03/09 07:12:22;;;;;;;15.97;9.77;;;7.90;56.30;;;;;;5061921;28;20628;-52
2021/03/09 07:14:50;;;;;;;12.30;8.67;;;7.90;56.00;;;;;;5063416;28;20670;-52
2021/03/09 07:17:21;;;;;;;11.07;9.57;;;8.00;55.90;;;;;;5057836;28;21182;-53
2021/03/09 07:19:48;;;;;;;11.47;10.23;;;8.10;55.50;;;;;;5051681;28;20640;-52
2021/03/09 07:22:17;;;;;;;16.90;10.20;;;8.20;55.50;;;;;;5052719;28;20655;-53
2021/03/09 07:24:47;;;;;;;13.00;10.30;;;8.20;55.40;;;;;;5052021;28;20681;-53
2021/03/09 07:27:17;;;;;;;13.70;10.87;;;8.20;55.40;;;;;;5052634;28;20628;-52
2021/03/09 07:29:48;;;;;;;12.00;10.23;;;8.30;54.50;;;;;;5052257;28;20636;-52
2021/03/09 07:32:15;;;;;;;14.77;12.33;;;8.30;54.20;;;;;;5055301;28;20654;-53
2021/03/09 07:34:42;;;;;;;13.80;11.03;;;8.30;54.00;;;;;;5070687;28;20651;-52
2021/03/09 07:37:09;;;;;;;13.70;10.03;;;8.20;53.50;;;;;;5071519;28;21029;-52
2021/03/09 07:39:37;;;;;;;13.90;9.97;;;8.20;53.40;;;;;;5071006;28;20619;-53
2021/03/09 07:42:04;;;;;;;16.13;10.53;;;8.20;53.50;;;;;;5051680;28;20674;-53
2021/03/09 07:44:31;;;;;;;14.13;10.20;;;8.20;53.40;;;;;;5051574;28;20698;-52
2021/03/09 07:46:58;;;;;;;12.20;10.30;;;8.30;53.40;;;;;;5051206;28;20641;-52
2021/03/09 07:49:25;;;;;;;27.57;15.83;;;8.40;53.30;;;;;;5050938;28;20641;-52
2021/03/09 07:52:26;;;;;;;30.57;15.07;;;8.50;53.60;;;;;;5050303;28;20632;-52
2021/03/09 07:55:19;;;;;;;22.90;14.47;;;8.50;54.60;;;;;;5065077;28;20698;-52
2021/03/09 07:57:46;;;;;;;29.00;14.50;;;8.50;55.00;;;;;;5055766;28;20656;-52
2021/03/09 08:00:14;;;;;;;24.30;14.23;;;8.50;55.40;;;;;;5070783;28;20701;-51
2021/03/09 08:02:53;;;;;;;23.47;14.20;;;8.50;55.30;;;;;;5062288;28;20623;-52
2021/03/09 08:05:22;;;;;;;21.93;14.67;;;8.50;55.50;;;;;;5052374;28;21066;-52
2021/03/09 08:07:51;;;;;;;22.90;14.50;;;8.50;55.40;;;;;;5052182;28;20629;-52
2021/03/09 08:10:41;;;;;;;18.90;14.60;;;8.50;55.10;;;;;;5051052;28;20629;-52
2021/03/09 08:13:24;;;;;;;17.43;14.87;;;8.50;55.20;;;;;;5050088;28;21019;-52
2021/03/09 08:15:51;;;;;;;19.20;16.43;;;8.50;55.20;;;;;;5051668;28;20621;-52
2021/03/09 08:18:43;;;;;;;20.80;15.37;;;8.50;55.20;;;;;;5051189;28;21172;-52
2021/03/09 08:21:09;;;;;;;17.33;14.97;;;8.60;54.90;;;;;;5050923;28;20625;-52
2021/03/09 08:23:56;;;;;;;20.40;15.77;;;8.60;54.90;;;;;;5050683;28;20691;-52
2021/03/09 08:26:42;;;;;;;19.57;15.63;;;8.70;54.90;;;;;;5056051;28;20683;-53
2021/03/09 08:29:33;;;;;;;23.43;16.03;;;8.80;54.80;;;;;;5067162;28;20628;-51
2021/03/09 08:32:36;;;;;;;18.23;13.87;;;8.80;54.70;;;;;;5065019;28;20618;-52
2021/03/09 08:35:38;;;;;;;21.70;18.03;;;8.90;54.60;;;;;;5050607;28;20653;-52
2021/03/09 08:38:16;;;;;;;19.27;15.13;;;9.00;54.60;;;;;;5051688;28;20629;-52
2021/03/09 08:41:09;;;;;;;17.23;15.10;;;9.10;54.40;;;;;;5050454;28;20683;-51
2021/03/09 08:43:37;;;;;;;18.77;15.47;;;9.20;54.20;;;;;;5050638;28;20719;-51
2021/03/09 08:46:05;;;;;;;20.13;15.07;;;9.30;53.90;;;;;;5055105;28;20646;-50
2021/03/09 08:48:54;;;;;;;26.57;15.60;;;9.40;53.10;;;;;;5048971;28;20732;-50
2021/03/09 08:51:50;;;;;;;22.30;16.30;;;9.40;52.70;;;;;;5050671;28;20660;-50
2021/03/09 08:54:27;;;;;;;19.53;15.10;;;9.50;52.90;;;;;;5050623;28;20653;-50
2021/03/09 08:56:55;;;;;;;17.73;13.10;;;9.50;52.20;;;;;;5051020;28;20775;-50
2021/03/09 08:59:23;;;;;;;21.40;14.80;;;9.60;52.20;;;;;;5050674;28;21110;-50
2021/03/09 09:01:50;;;;;;;16.97;13.27;;;9.60;51.70;;;;;;5050324;28;20622;-52
2021/03/09 09:04:17;;;;;;;16.80;14.50;;;9.60;51.80;;;;;;5050343;28;20708;-52
2021/03/09 09:06:45;;;;;;;20.70;14.27;;;9.60;51.00;;;;;;5050700;28;21259;-52
2021/03/09 09:09:11;;;;;;;18.90;14.87;;;9.50;50.90;;;;;;5050112;28;20692;-51
2021/03/09 09:11:38;;;;;;;14.07;12.57;;;9.60;51.20;;;;;;5050075;28;21163;-52
2021/03/09 09:14:18;;;;;;;16.80;14.37;;;9.70;51.20;;;;;;5050137;28;21250;-53
2021/03/09 09:16:46;;;;;;;16.40;12.87;;;9.80;50.70;;;;;;5050417;28;20641;-50
2021/03/09 09:19:13;;;;;;;14.93;13.40;;;9.80;51.00;;;;;;5050206;28;21174;-51
2021/03/09 09:21:44;;;;;;;16.00;14.30;;;9.80;51.00;;;;;;5050197;28;21039;-50
2021/03/09 09:24:19;;;;;;;18.57;13.90;;;9.70;50.20;;;;;;5050147;28;20705;-50
2021/03/09 09:26:45;;;;;;;16.00;12.00;;;9.80;50.30;;;;;;5050656;28;20694;-51
2021/03/09 09:29:12;;;;;;;13.40;12.00;;;9.90;50.30;;;;;;5048172;28;20630;-52
2021/03/09 09:31:40;;;;;;;17.67;14.70;;;10.00;49.10;;;;;;5049590;28;20648;-50
2021/03/09 09:34:07;;;;;;;18.10;13.70;;;10.10;49.00;;;;;;5050083;28;20992;-49
2021/03/09 09:36:34;;;;;;;17.03;14.07;;;10.10;48.80;;;;;;5052143;28;20633;-52
2021/03/09 09:39:01;;;;;;;16.27;13.60;;;10.10;49.00;;;;;;5053853;28;20640;-51
2021/03/09 09:41:28;;;;;;;18.23;15.23;;;10.20;49.00;;;;;;5054152;28;20633;-51
2021/03/09 09:43:55;;;;;;;16.57;14.70;;;10.30;49.10;;;;;;5054072;28;20728;-52
2021/03/09 09:46:22;;;;;;;16.67;13.90;;;10.30;49.30;;;;;;5054118;28;20662;-53
2021/03/09 09:48:51;;;;;;;20.43;14.70;;;10.40;48.70;;;;;;5053470;28;20691;-51
2021/03/09 09:51:20;;;;;;;19.90;14.60;;;10.40;48.50;;;;;;5053901;28;20629;-51
2021/03/09 09:53:47;;;;;;;25.93;16.00;;;10.40;48.40;;;;;;5054024;28;20688;-51
2021/03/09 09:56:21;;;;;;;17.10;14.57;;;10.40;48.40;;;;;;5054771;28;21243;-51
2021/03/09 09:58:48;;;;;;;17.10;14.30;;;10.40;48.20;;;;;;5053764;28;20654;-51
2021/03/09 10:01:16;;;;;;;18.00;15.37;;;10.50;48.10;;;;;;5053649;28;20703;-51
2021/03/09 10:03:53;;;;;;;20.57;15.17;;;10.60;48.20;;;;;;5053522;28;20666;-51
2021/03/09 10:06:21;;;;;;;17.17;15.10;;;10.80;48.10;;;;;;5053958;28;20669;-51
2021/03/09 10:08:47;;;;;;;17.17;15.37;;;10.90;48.00;;;;;;5053190;28;20630;-50
2021/03/09 10:11:14;;;;;;;17.30;14.20;;;11.00;47.70;;;;;;5056951;28;20629;-51
2021/03/09 10:13:41;;;;;;;16.63;14.80;;;11.00;46.90;;;;;;5069922;28;20661;-50
2021/03/09 10:16:08;;;;;;;16.97;13.40;;;10.80;46.80;;;;;;5057067;28;20633;-52
2021/03/09 10:18:36;;;;;;;16.33;13.63;;;10.70;47.20;;;;;;5056773;28;20711;-51
2021/03/09 10:21:12;;;;;;;18.30;15.13;;;10.60;46.90;;;;;;5072650;28;20682;-53
2021/03/09 10:23:52;;;;;;;15.13;13.13;;;10.80;47.40;;;;;;5064731;28;20691;-52
2021/03/09 10:26:29;;;;;;;14.40;12.90;;;11.00;47.20;;;;;;5064619;28;20657;-52
2021/03/09 10:29:04;;;;;;;12.60;11.27;;;11.20;45.70;;;;;;5069131;28;20669;-53
2021/03/09 10:31:48;;;;;;;10.07;9.00;;;11.40;44.80;;;;;;5054939;28;20634;-53
2021/03/09 10:34:16;;;;;;;10.43;9.37;;;11.60;43.80;;;;;;5066869;28;20661;-55
2021/03/09 10:37:04;;;;;;;13.00;11.33;;;11.70;43.70;;;;;;5065036;28;21213;-54
2021/03/09 10:39:32;;;;;;;10.17;8.63;;;11.80;44.20;;;;;;5047562;28;20728;-53
2021/03/09 10:41:59;;;;;;;13.20;10.80;;;12.00;43.60;;;;;;5053079;28;20630;-53
2021/03/09 10:44:34;;;;;;;11.83;10.13;;;12.00;43.10;;;;;;5054316;28;21049;-51
2021/03/09 10:47:01;;;;;;;11.17;9.93;;;12.00;43.50;;;;;;5064372;28;20626;-53
2021/03/09 10:49:29;;;;;;;9.43;8.53;;;12.10;42.90;;;;;;5072143;28;20680;-52
2021/03/09 10:51:59;;;;;;;9.23;8.00;;;12.10;42.80;;;;;;5073211;28;20625;-53
2021/03/09 10:54:27;;;;;;;10.50;9.40;;;12.00;43.10;;;;;;5072332;28;20649;-52
2021/03/09 10:56:54;;;;;;;10.97;9.87;;;12.10;42.80;;;;;;5072223;28;21041;-50
2021/03/09 10:59:21;;;;;;;13.50;9.57;;;12.10;42.50;;;;;;5070899;28;20633;-52
2021/03/09 11:01:48;;;;;;;9.33;8.43;;;12.00;41.90;;;;;;5067432;28;20626;-53
2021/03/09 11:04:15;;;;;;;12.60;11.27;;;12.10;42.00;;;;;;5054728;28;20657;-53
2021/03/09 11:06:41;;;;;;;12.43;11.00;;;12.20;42.50;;;;;;5056253;28;20660;-53
2021/03/09 11:09:09;;;;;;;14.27;11.37;;;12.10;42.50;;;;;;5052961;28;20626;-52
2021/03/09 11:11:37;;;;;;;15.20;12.53;;;12.10;42.60;;;;;;5051548;28;21187;-52
2021/03/09 11:14:04;;;;;;;12.80;11.30;;;12.10;42.40;;;;;;5051942;28;21050;-54
2021/03/09 11:16:31;;;;;;;14.97;11.87;;;12.10;42.30;;;;;;5056239;28;20975;-54
2021/03/09 11:18:58;;;;;;;13.60;10.37;;;12.00;42.20;;;;;;5059464;28;20626;-57
2021/03/09 11:21:25;;;;;;;14.40;12.90;;;12.00;42.40;;;;;;5068903;28;20980;-53
2021/03/09 11:23:52;;;;;;;14.83;12.90;;;11.90;43.30;;;;;;5067787;28;20687;-54
2021/03/09 11:26:19;;;;;;;13.53;12.10;;;11.60;43.40;;;;;;5050374;28;21226;-53
2021/03/09 11:28:47;;;;;;;17.43;11.93;;;11.10;43.60;;;;;;5051308;28;21260;-53
2021/03/09 11:31:14;;;;;;;16.27;13.83;;;10.60;45.00;;;;;;5051344;28;21167;-52
2021/03/09 11:33:41;;;;;;;17.50;14.03;;;10.40;46.40;;;;;;5064741;28;21920;-52
2021/03/09 11:36:09;;;;;;;15.90;13.57;;;10.30;46.40;;;;;;5070492;28;20632;-53
2021/03/09 11:38:36;;;;;;;19.10;13.93;;;10.20;46.30;;;;;;5054824;28;20706;-53
2021/03/09 11:41:02;;;;;;;16.97;13.30;;;10.20;46.60;;;;;;5071371;28;20609;-54
2021/03/09 11:43:29;;;;;;;20.03;13.10;;;10.30;46.90;;;;;;5062068;28;21233;-53
2021/03/09 11:45:57;;;;;;;19.27;14.63;;;10.40;48.40;;;;;;5071871;28;21024;-53
2021/03/09 11:48:24;;;;;;;16.10;14.40;;;10.60;47.70;;;;;;5070382;28;20668;-54
2021/03/09 11:50:51;;;;;;;16.33;12.37;;;10.70;47.50;;;;;;5063733;28;20633;-52
2021/03/09 11:53:18;;;;;;;13.67;12.17;;;10.80;47.00;;;;;;5056089;28;21298;-52
2021/03/09 11:55:45;;;;;;;18.07;12.47;;;10.80;46.50;;;;;;5054504;28;20933;-52
2021/03/09 11:58:11;;;;;;;22.60;18.07;;;10.60;47.40;;;;;;5054769;28;20634;-51
2021/03/09 12:00:38;;;;;;;20.43;14.10;;;10.40;48.50;;;;;;5066232;28;20625;-51
2021/03/09 12:03:06;;;;;;;21.80;16.93;;;10.40;48.90;;;;;;5064133;28;20698;-53
2021/03/09 12:05:33;;;;;;;22.90;16.83;;;10.40;49.60;;;;;;5057947;28;20704;-53
2021/03/09 12:08:00;;;;;;;22.40;16.13;;;10.30;49.60;;;;;;5058793;28;20682;-53
2021/03/09 12:10:27;;;;;;;21.30;17.27;;;10.30;50.90;;;;;;5050524;28;20688;-52
2021/03/09 12:12:53;;;;;;;19.67;16.07;;;10.20;50.70;;;;;;5050504;28;20627;-52
2021/03/09 12:15:20;;;;;;;20.67;16.80;;;10.30;51.10;;;;;;5052144;28;21233;-53
2021/03/09 12:17:47;;;;;;;20.80;15.50;;;10.40;50.90;;;;;;5070825;28;21162;-52
2021/03/09 12:20:15;;;;;;;18.70;15.13;;;10.60;50.30;;;;;;5062444;28;20674;-52
2021/03/09 12:22:42;;;;;;;17.83;16.03;;;10.90;49.90;;;;;;5054502;28;20712;-52
2021/03/09 12:25:10;;;;;;;22.83;16.73;;;11.20;49.80;;;;;;5053486;28;20665;-53
2021/03/09 12:27:36;;;;;;;19.57;16.10;;;11.40;48.60;;;;;;5050191;28;20661;-54
2021/03/09 12:30:05;;;;;;;22.33;16.20;;;11.50;48.10;;;;;;5050557;28;20684;-52
2021/03/09 12:32:31;;;;;;;17.93;13.93;;;11.60;47.70;;;;;;5050430;28;20634;-53
2021/03/09 12:34:58;;;;;;;13.00;11.10;;;11.70;47.80;;;;;;5055529;28;21211;-53
2021/03/09 12:37:26;;;;;;;13.40;12.00;;;11.70;47.10;;;;;;5049948;28;20643;-53
2021/03/09 12:39:53;;;;;;;16.70;12.40;;;11.50;45.80;;;;;;5050692;28;20626;-53
2021/03/09 12:42:19;;;;;;;15.80;11.20;;;11.50;45.80;;;;;;5050201;28;20756;-54
2021/03/09 12:44:46;;;;;;;12.47;10.30;;;11.60;46.40;;;;;;5050287;28;20669;-53
2021/03/09 12:47:13;;;;;;;14.40;11.70;;;11.60;45.70;;;;;;5050722;28;21206;-52